Time;durP1;ratioP1;P1;durP2;ratioP2;P2;SDS_P1;SDS_P2;PMS_P1;PMS_P2;Temp;Humidity;BMP_temperature;BMP_pressure;BME280_temperature;BME280_humidity;BME280_pressure;Samples;Min_cycle;Max_cycle;Signal;HPM_P1;HPM_P2
2023/04/14 00:01:38;;;;;;;3.05;2.15;;;;;;;12.06;62.07;92235.31;5036843;28;20045;-71
2023/04/14 00:04:05;;;;;;;2.75;1.85;;;;;;;12.03;62.48;92219.31;5029353;28;20037;-71
2023/04/14 00:06:32;;;;;;;3.22;2.00;;;;;;;12.09;62.11;92230.47;5042005;28;20087;-71
2023/04/14 00:09:00;;;;;;;3.45;2.30;;;;;;;12.10;62.17;92226.91;5049081;28;20088;-71
2023/04/14 00:11:27;;;;;;;4.80;2.30;;;;;;;11.83;62.68;92195.97;5043878;28;20225;-71
2023/04/14 00:13:54;;;;;;;4.13;2.40;;;;;;;12.10;62.25;92220.94;5046285;28;20128;-71
2023/04/14 00:16:21;;;;;;;6.72;3.05;;;;;;;12.09;63.24;92221.97;5029624;28;20049;-71
2023/04/14 00:18:48;;;;;;;5.50;2.50;;;;;;;12.06;62.99;92219.88;5029016;28;20099;-71
2023/04/14 00:21:17;;;;;;;5.22;3.03;;;;;;;12.06;62.84;92225.03;5041792;28;20057;-71
2023/04/14 00:23:44;;;;;;;4.88;2.78;;;;;;;12.07;63.21;92226.59;5048901;28;20094;-71
2023/04/14 00:26:12;;;;;;;3.83;2.20;;;;;;;12.05;63.14;92213.97;5047919;28;20048;-71
2023/04/14 00:28:39;;;;;;;4.18;2.47;;;;;;;12.05;62.96;92210.59;5029985;28;20111;-71
2023/04/14 00:31:07;;;;;;;4.80;2.58;;;;;;;12.06;62.90;92212.16;5028695;28;20100;-71
2023/04/14 00:33:33;;;;;;;3.70;2.50;;;;;;;12.01;63.52;92207.72;5037441;28;20098;-72
2023/04/14 00:36:00;;;;;;;4.90;2.75;;;;;;;12.00;63.72;92204.34;5032700;28;20095;-71
2023/04/14 00:38:27;;;;;;;4.47;2.70;;;;;;;11.85;64.54;92191.38;5028278;28;20465;-71
2023/04/14 00:40:53;;;;;;;4.82;2.47;;;;;;;11.87;64.36;92192.69;5028008;28;20045;-71
2023/04/14 00:43:21;;;;;;;5.38;2.53;;;;;;;11.87;64.69;92184.97;5028626;28;20049;-71
2023/04/14 00:45:51;;;;;;;3.92;2.20;;;;;;;11.84;64.85;92184.63;5028321;28;20476;-71
2023/04/14 00:48:19;;;;;;;3.40;2.60;;;;;;;11.77;65.16;92175.31;5034162;28;20170;-71
2023/04/14 00:50:46;;;;;;;5.32;2.42;;;;;;;11.79;65.39;92187.19;5048278;28;20099;-71
2023/04/14 00:53:14;;;;;;;5.63;2.30;;;;;;;11.72;65.24;92190.69;5048172;28;20041;-71
2023/04/14 00:55:41;;;;;;;3.85;2.25;;;;;;;11.74;65.46;92191.25;5047640;28;20558;-71
2023/04/14 00:58:09;;;;;;;4.68;2.15;;;;;;;11.72;65.73;92187.38;5047983;28;20126;-70
2023/04/14 01:00:37;;;;;;;7.47;2.58;;;;;;;11.76;65.60;92193.59;5047580;28;20072;-71
2023/04/14 01:03:05;;;;;;;3.72;2.30;;;;;;;11.76;65.54;92196.16;5048056;28;20041;-70
2023/04/14 01:05:32;;;;;;;3.65;2.08;;;;;;;11.72;65.76;92198.41;5048449;28;20072;-70
2023/04/14 01:08:00;;;;;;;3.90;2.40;;;;;;;11.71;65.83;92206.41;5047957;28;20885;-71
2023/04/14 01:10:33;;;;;;;4.22;2.25;;;;;;;11.73;65.93;92206.94;5047984;28;20053;-71
2023/04/14 01:13:13;;;;;;;4.60;2.60;;;;;;;11.72;65.50;92205.38;5042056;28;20077;-71
2023/04/14 01:15:47;;;;;;;3.78;2.40;;;;;;;11.70;65.99;92213.34;5027840;28;20555;-71
2023/04/14 01:18:21;;;;;;;5.05;2.38;;;;;;;11.70;66.17;92197.91;5027897;28;20049;-71
2023/04/14 01:20:51;;;;;;;3.72;2.03;;;;;;;11.72;65.53;92195.09;5037591;28;20045;-71
2023/04/14 01:23:30;;;;;;;3.55;2.30;;;;;;;11.64;66.14;92196.28;5047378;28;20041;-71
2023/04/14 01:26:23;;;;;;;4.07;2.40;;;;;;;11.60;66.20;92200.34;5047698;28;20136;-70
2023/04/14 01:29:17;;;;;;;3.50;2.20;;;;;;;11.58;66.41;92198.00;5040563;28;20103;-71
2023/04/14 01:31:48;;;;;;;3.08;2.05;;;;;;;11.54;66.61;92178.97;5027610;28;20544;-71
2023/04/14 01:34:22;;;;;;;3.85;2.13;;;;;;;11.56;66.37;92182.06;5028127;28;20127;-71
2023/04/14 01:36:54;;;;;;;5.07;2.53;;;;;;;11.57;66.85;92188.00;5027510;28;20045;-70
2023/04/14 01:39:25;;;;;;;4.22;2.67;;;;;;;11.50;67.01;92183.78;5027445;28;20045;-71
2023/04/14 01:41:57;;;;;;;5.03;2.53;;;;;;;11.26;67.15;92144.72;5027869;28;20049;-70
2023/04/14 01:44:26;;;;;;;4.70;2.30;;;;;;;11.49;67.52;92179.66;5027627;28;20050;-71
2023/04/14 01:47:00;;;;;;;4.45;2.28;;;;;;;11.45;67.60;92172.69;5035159;28;20453;-70
2023/04/14 01:49:30;;;;;;;3.55;2.22;;;;;;;11.40;67.89;92163.13;5047313;28;20156;-71
2023/04/14 01:51:57;;;;;;;5.35;2.50;;;;;;;11.40;67.66;92182.91;5047653;28;20648;-71
2023/04/14 01:54:24;;;;;;;3.40;2.00;;;;;;;11.39;67.86;92186.50;5046975;28;20045;-71
2023/04/14 01:56:52;;;;;;;5.05;2.33;;;;;;;11.41;67.68;92195.53;5047513;28;20056;-71
2023/04/14 01:59:21;;;;;;;4.80;2.40;;;;;;;11.35;68.06;92192.09;5047131;28;20037;-71
2023/04/14 02:01:50;;;;;;;3.63;1.90;;;;;;;11.27;68.21;92184.03;5047296;28;20048;-71
2023/04/14 02:04:21;;;;;;;4.10;2.33;;;;;;;11.33;68.31;92191.56;5047213;28;20413;-70
2023/04/14 02:06:51;;;;;;;6.40;3.20;;;;;;;11.30;68.60;92192.03;5047505;28;20169;-71
2023/04/14 02:09:20;;;;;;;4.40;2.47;;;;;;;11.28;68.05;92201.78;5047061;28;20061;-71
2023/04/14 02:11:50;;;;;;;11.02;5.32;;;;;;;11.35;67.94;92188.78;5048633;28;20543;-71
2023/04/14 02:14:18;;;;;;;9.90;5.20;;;;;;;11.34;67.83;92190.56;5051380;28;20515;-70
2023/04/14 02:16:49;;;;;;;10.30;5.40;;;;;;;11.39;68.05;92184.69;5051169;28;20448;-71
2023/04/14 02:19:20;;;;;;;13.02;5.20;;;;;;;11.41;67.94;92184.44;5050992;28;20489;-71
2023/04/14 02:21:49;;;;;;;8.93;4.22;;;;;;;11.38;67.59;92185.72;5050883;28;20091;-71
2023/04/14 02:24:16;;;;;;;16.17;7.75;;;;;;;11.22;68.06;92162.38;5050865;28;20045;-71
2023/04/14 02:26:51;;;;;;;16.17;6.35;;;;;;;11.38;68.07;92183.13;5050805;28;20517;-71
2023/04/14 02:29:21;;;;;;;12.88;6.20;;;;;;;11.34;68.35;92180.28;5050958;28;20102;-72
2023/04/14 02:32:02;;;;;;;10.93;4.88;;;;;;;11.28;68.37;92181.22;5037878;28;20045;-71
2023/04/14 02:34:35;;;;;;;5.70;3.10;;;;;;;11.14;69.12;92162.81;5050909;28;20049;-71
2023/04/14 02:37:08;;;;;;;8.65;3.17;;;;;;;11.12;69.41;92164.84;5050590;28;20099;-71
2023/04/14 02:39:40;;;;;;;5.40;2.50;;;;;;;11.11;69.72;92167.66;5050679;28;20041;-72
2023/04/14 02:42:13;;;;;;;5.65;3.00;;;;;;;11.05;70.16;92167.59;5050850;28;20058;-72
2023/04/14 02:44:45;;;;;;;6.28;2.67;;;;;;;11.03;70.47;92164.50;5044282;28;20037;-71
2023/04/14 02:47:15;;;;;;;4.65;2.50;;;;;;;11.01;70.75;92165.75;5044034;28;20048;-71
2023/04/14 02:49:47;;;;;;;5.82;2.70;;;;;;;10.98;70.75;92149.00;5050621;28;20066;-71
2023/04/14 02:52:16;;;;;;;3.78;2.20;;;;;;;11.05;70.52;92147.03;5050065;28;20456;-71
2023/04/14 02:54:44;;;;;;;3.95;2.55;;;;;;;11.04;70.37;92153.19;5050364;28;20053;-71
2023/04/14 02:57:11;;;;;;;6.38;2.63;;;;;;;10.89;69.95;92122.97;5050485;28;20098;-71
2023/04/14 02:59:40;;;;;;;4.57;2.40;;;;;;;11.12;69.90;92159.72;5050412;28;20098;-71
2023/04/14 03:02:09;;;;;;;6.32;3.13;;;;;;;11.15;69.98;92169.50;5050226;28;20763;-71
2023/04/14 03:04:38;;;;;;;5.75;2.92;;;;;;;11.18;69.77;92163.91;5050282;28;20076;-71
2023/04/14 03:07:08;;;;;;;5.85;3.65;;;;;;;11.23;69.55;92163.97;5049998;28;20047;-71
2023/04/14 03:09:36;;;;;;;5.03;2.90;;;;;;;11.22;68.72;92170.09;5050292;28;20053;-71
2023/04/14 03:12:04;;;;;;;9.15;3.05;;;;;;;11.02;69.31;92139.03;5050269;28;20041;-71
2023/04/14 03:14:31;;;;;;;4.35;2.72;;;;;;;11.10;70.09;92143.75;5050064;28;20045;-71
2023/04/14 03:16:59;;;;;;;4.65;2.45;;;;;;;11.14;69.75;92146.59;5049724;28;20059;-71
2023/04/14 03:19:28;;;;;;;3.70;2.45;;;;;;;11.14;69.41;92141.47;5049873;28;20686;-71
2023/04/14 03:21:57;;;;;;;5.05;3.20;;;;;;;11.08;70.09;92131.13;5049965;28;20053;-71
2023/04/14 03:24:29;;;;;;;4.63;2.72;;;;;;;11.10;69.93;92120.59;5049889;28;20509;-71
2023/04/14 03:27:01;;;;;;;4.63;3.03;;;;;;;11.05;69.94;92103.34;5049870;28;20076;-71
2023/04/14 03:29:31;;;;;;;4.55;2.60;;;;;;;11.05;70.17;92097.41;5049074;28;20048;-71
2023/04/14 03:32:01;;;;;;;3.83;2.22;;;;;;;11.04;70.18;92091.53;5050063;28;20048;-70
2023/04/14 03:34:30;;;;;;;4.75;2.63;;;;;;;11.01;70.74;92081.72;5049260;28;20053;-71
2023/04/14 03:36:58;;;;;;;5.57;2.88;;;;;;;11.14;70.01;92082.34;5049833;28;20052;-71
2023/04/14 03:39:29;;;;;;;5.80;3.83;;;;;;;11.12;70.06;92082.63;5049594;28;20059;-71
2023/04/14 03:41:57;;;;;;;8.10;3.45;;;;;;;11.15;69.73;92068.50;5049324;28;20049;-71
2023/04/14 03:44:27;;;;;;;6.97;3.80;;;;;;;11.16;69.82;92057.97;5049475;28;20044;-71
2023/04/14 03:46:54;;;;;;;5.78;3.08;;;;;;;11.05;69.78;92036.53;5036025;28;20085;-71
2023/04/14 03:49:24;;;;;;;5.13;3.35;;;;;;;11.17;70.20;92054.41;5049489;28;20053;-71
2023/04/14 03:51:53;;;;;;;4.95;2.85;;;;;;;10.98;70.12;92025.69;5037398;28;20560;-71
2023/04/14 03:54:22;;;;;;;4.90;2.65;;;;;;;11.15;70.29;92050.53;5048172;28;20080;-71
2023/04/14 03:56:55;;;;;;;6.57;3.15;;;;;;;11.11;69.80;92057.16;5037305;28;20053;-71
2023/04/14 03:59:25;;;;;;;6.97;2.85;;;;;;;11.08;70.15;92048.13;5029513;28;20103;-71
2023/04/14 04:01:53;;;;;;;7.18;3.05;;;;;;;11.05;70.49;92059.66;5029574;28;20046;-71
2023/04/14 04:04:21;;;;;;;4.60;2.90;;;;;;;11.01;70.77;92057.81;5032765;28;20585;-71
2023/04/14 04:06:48;;;;;;;7.32;2.88;;;;;;;11.00;70.86;92054.47;5048832;28;20126;-71
2023/04/14 04:09:16;;;;;;;9.88;3.92;;;;;;;11.02;70.50;92056.81;5040237;28;20096;-71
2023/04/14 04:11:46;;;;;;;4.85;2.70;;;;;;;10.93;70.97;92067.50;5048590;28;20044;-71
2023/04/14 04:14:17;;;;;;;5.35;3.10;;;;;;;11.07;70.85;92090.28;5048799;28;20048;-71
2023/04/14 04:16:48;;;;;;;10.93;4.00;;;;;;;11.04;70.93;92101.81;5048585;28;20048;-71
2023/04/14 04:19:18;;;;;;;6.95;3.38;;;;;;;11.06;71.21;92111.84;5048215;28;20132;-71
2023/04/14 04:21:46;;;;;;;10.02;3.70;;;;;;;11.09;70.27;92117.28;5045985;28;20041;-71
2023/04/14 04:24:15;;;;;;;9.57;3.88;;;;;;;11.12;70.43;92128.09;5048262;28;20048;-71
2023/04/14 04:26:42;;;;;;;8.43;4.10;;;;;;;11.12;70.08;92118.59;5048718;28;20041;-71
2023/04/14 04:29:10;;;;;;;5.28;3.10;;;;;;;11.08;69.93;92118.28;5047818;28;20091;-71
2023/04/14 04:31:39;;;;;;;5.65;2.50;;;;;;;11.13;69.81;92129.63;5048203;28;20059;-71
2023/04/14 04:34:08;;;;;;;5.03;2.67;;;;;;;11.02;70.12;92123.63;5047273;28;20912;-71
2023/04/14 04:36:36;;;;;;;6.88;3.05;;;;;;;11.07;71.13;92121.88;5048005;28;20072;-71
2023/04/14 04:39:03;;;;;;;5.38;3.08;;;;;;;11.05;71.36;92110.28;5035910;28;20541;-71
2023/04/14 04:41:30;;;;;;;4.03;2.63;;;;;;;11.05;71.41;92115.41;5048410;28;20791;-70
2023/04/14 04:43:57;;;;;;;5.43;2.75;;;;;;;11.07;71.78;92115.97;5048444;28;20447;-70
2023/04/14 04:46:54;;;;;;;6.25;2.92;;;;;;;11.11;71.31;92111.13;5047874;28;20048;-70
2023/04/14 04:49:21;;;;;;;5.40;2.47;;;;;;;11.14;70.67;92105.47;5041427;28;20452;-71
2023/04/14 04:51:48;;;;;;;4.68;2.88;;;;;;;11.16;71.21;92098.31;5047943;28;20087;-70
2023/04/14 04:54:15;;;;;;;6.72;3.80;;;;;;;11.23;70.48;92099.69;5047830;28;20049;-71
2023/04/14 04:56:42;;;;;;;7.07;3.53;;;;;;;11.25;70.47;92098.69;5047770;28;20053;-71
2023/04/14 04:59:09;;;;;;;7.47;4.03;;;;;;;11.32;70.65;92092.34;5047340;28;20045;-71
2023/04/14 05:01:36;;;;;;;3.85;2.60;;;;;;;11.30;70.06;92080.75;5047334;28;20040;-71
2023/04/14 05:04:05;;;;;;;6.18;3.00;;;;;;;11.35;69.58;92081.56;5047695;28;20041;-71
2023/04/14 05:06:35;;;;;;;6.45;2.67;;;;;;;11.49;69.67;92088.91;5034050;28;20053;-71
2023/04/14 05:09:03;;;;;;;5.45;2.58;;;;;;;11.55;69.58;92079.41;5047662;28;20045;-70
2023/04/14 05:11:30;;;;;;;5.78;2.70;;;;;;;11.62;68.99;92072.31;5036880;28;20115;-69
2023/04/14 05:13:56;;;;;;;5.45;2.55;;;;;;;11.56;69.45;92039.81;5047530;28;20497;-70
2023/04/14 05:16:24;;;;;;;6.35;2.85;;;;;;;11.72;68.76;92056.94;5046854;28;20049;-70
2023/04/14 05:18:51;;;;;;;6.80;4.03;;;;;;;11.78;68.62;92052.63;5047278;28;20053;-70
2023/04/14 05:21:19;;;;;;;10.95;4.60;;;;;;;11.87;69.08;92050.38;5047616;28;20049;-71
2023/04/14 05:23:46;;;;;;;4.65;2.85;;;;;;;11.89;68.75;92043.94;5047216;28;20049;-72
2023/04/14 05:26:15;;;;;;;7.60;3.40;;;;;;;11.99;68.59;92037.34;5046991;28;20087;-72
2023/04/14 05:28:42;;;;;;;6.70;2.75;;;;;;;11.96;69.18;92024.94;5046997;28;20144;-72
2023/04/14 05:31:09;;;;;;;13.30;5.95;;;;;;;11.98;69.01;92007.47;5046493;28;20122;-72
2023/04/14 05:33:36;;;;;;;10.45;4.75;;;;;;;12.07;69.06;92011.16;5045511;28;20045;-71
2023/04/14 05:36:03;;;;;;;14.85;6.18;;;;;;;12.14;68.64;92010.94;5046871;28;20489;-71
2023/04/14 05:38:31;;;;;;;12.52;4.80;;;;;;;12.19;69.20;92010.97;5047126;28;20102;-71
2023/04/14 05:40:58;;;;;;;7.03;3.30;;;;;;;12.25;69.01;92009.97;5046959;28;20060;-71
2023/04/14 05:43:24;;;;;;;7.15;3.13;;;;;;;12.27;68.82;92005.34;5047534;28;20122;-71
2023/04/14 05:45:51;;;;;;;7.80;3.70;;;;;;;12.31;68.88;92008.19;5045874;28;20128;-71
2023/04/14 05:48:18;;;;;;;8.77;4.35;;;;;;;12.38;69.07;92005.41;5046979;28;20041;-72
2023/04/14 05:50:44;;;;;;;7.90;3.50;;;;;;;12.40;68.69;92000.75;5046796;28;20387;-71
2023/04/14 05:53:11;;;;;;;9.32;5.22;;;;;;;12.49;68.45;91994.13;5047014;28;20463;-72
2023/04/14 05:55:41;;;;;;;16.23;4.60;;;;;;;12.52;67.79;91992.84;5046833;28;20041;-71
2023/04/14 05:58:07;;;;;;;10.95;4.40;;;;;;;12.49;67.68;91970.94;5046711;28;21126;-71
2023/04/14 06:00:34;;;;;;;8.32;4.40;;;;;;;12.66;67.42;91978.47;5046565;28;20037;-72
2023/04/14 06:03:01;;;;;;;14.15;4.57;;;;;;;12.74;66.13;91971.28;5046643;28;20539;-72
2023/04/14 06:05:28;;;;;;;8.85;4.07;;;;;;;12.76;66.18;91964.06;5046592;28;20494;-71
2023/04/14 06:07:55;;;;;;;10.88;3.80;;;;;;;12.81;65.32;91944.25;5047084;28;20095;-72
2023/04/14 06:10:21;;;;;;;8.98;4.15;;;;;;;12.89;63.92;91935.25;5046484;28;20049;-71
2023/04/14 06:12:49;;;;;;;9.38;4.13;;;;;;;12.95;63.92;91929.06;5039364;28;20057;-72
2023/04/14 06:15:16;;;;;;;6.18;3.45;;;;;;;13.02;63.39;91925.47;5046390;28;20049;-72
2023/04/14 06:17:46;;;;;;;11.73;4.03;;;;;;;13.16;63.03;91926.53;5046605;28;20559;-72
2023/04/14 06:20:13;;;;;;;10.15;4.10;;;;;;;13.29;61.43;91917.47;5046633;28;20041;-71
2023/04/14 06:22:39;;;;;;;8.35;3.67;;;;;;;13.40;60.80;91910.53;5040611;28;20182;-72
2023/04/14 06:25:07;;;;;;;6.93;3.53;;;;;;;13.41;59.40;91880.34;5046557;28;20045;-72
2023/04/14 06:27:33;;;;;;;12.95;4.10;;;;;;;13.70;57.89;91898.66;5046064;28;20079;-72
2023/04/14 06:30:01;;;;;;;8.20;3.50;;;;;;;13.82;56.10;91884.69;5045968;28;20869;-72
2023/04/14 06:32:28;;;;;;;11.00;3.25;;;;;;;13.92;54.75;91871.75;5042371;28;20052;-72
2023/04/14 06:34:56;;;;;;;12.30;2.78;;;;;;;14.03;53.75;91873.28;5041906;28;20053;-71
2023/04/14 06:37:22;;;;;;;8.65;2.70;;;;;;;14.07;53.24;91858.03;5040191;28;20453;-72
2023/04/14 06:39:49;;;;;;;7.90;3.17;;;;;;;14.15;53.07;91847.16;5046222;28;20087;-72
2023/04/14 06:42:16;;;;;;;8.50;2.72;;;;;;;14.32;51.07;91853.78;5046717;28;20053;-71
2023/04/14 06:44:42;;;;;;;11.70;3.08;;;;;;;14.40;51.48;91860.97;5046283;28;20541;-72
2023/04/14 06:47:11;;;;;;;12.65;4.28;;;;;;;14.50;51.34;91841.31;5046468;28;20049;-72
2023/04/14 06:49:37;;;;;;;9.40;2.83;;;;;;;14.57;51.07;91849.50;5042452;28;20049;-72
2023/04/14 06:52:05;;;;;;;10.35;3.55;;;;;;;14.64;51.25;91842.25;5037717;28;20056;-72
2023/04/14 06:54:33;;;;;;;11.93;3.28;;;;;;;14.73;51.99;91842.47;5046039;28;20049;-71
2023/04/14 06:57:01;;;;;;;12.65;3.45;;;;;;;14.74;53.33;91844.00;5041376;28;20573;-72
2023/04/14 06:59:28;;;;;;;11.85;3.70;;;;;;;14.75;54.37;91850.72;5049528;28;20131;-72
2023/04/14 07:01:57;;;;;;;9.35;3.22;;;;;;;14.79;55.31;91851.75;5045896;28;20045;-72
2023/04/14 07:04:25;;;;;;;7.13;2.70;;;;;;;14.81;56.32;91846.28;5049850;28;20045;-72
2023/04/14 07:06:52;;;;;;;8.48;3.15;;;;;;;14.77;56.81;91853.81;5049950;28;20523;-72
2023/04/14 07:09:19;;;;;;;7.45;3.22;;;;;;;14.75;57.94;91850.72;5049482;28;20049;-72
2023/04/14 07:11:46;;;;;;;10.25;3.03;;;;;;;14.82;59.27;91842.69;5049454;28;20138;-72
2023/04/14 07:14:13;;;;;;;7.43;3.70;;;;;;;14.89;58.76;91843.13;5049497;28;20164;-72
2023/04/14 07:16:40;;;;;;;17.10;7.95;;;;;;;15.03;58.35;91848.47;5049592;28;20098;-72
2023/04/14 07:19:07;;;;;;;20.27;12.90;;;;;;;15.19;58.65;91850.94;5049655;28;20059;-72
2023/04/14 07:21:36;;;;;;;8.10;4.32;;;;;;;15.32;57.64;91868.41;5047689;28;20045;-72
2023/04/14 07:24:03;;;;;;;8.85;4.65;;;;;;;15.46;56.86;91893.66;5049648;28;20045;-72
2023/04/14 07:26:30;;;;;;;11.00;3.60;;;;;;;15.49;56.89;91880.94;5049016;28;20045;-72
2023/04/14 07:28:57;;;;;;;9.70;3.75;;;;;;;15.61;56.14;91896.09;5041593;28;20042;-72
2023/04/14 07:31:24;;;;;;;11.07;5.55;;;;;;;15.70;56.25;91890.34;5043792;28;20049;-72
2023/04/14 07:33:50;;;;;;;9.15;4.38;;;;;;;15.90;55.70;91908.28;5049277;28;20048;-72
2023/04/14 07:36:17;;;;;;;11.82;4.38;;;;;;;16.00;55.43;91883.31;5049346;28;20048;-72
2023/04/14 07:38:45;;;;;;;7.88;3.53;;;;;;;16.14;53.95;91920.47;5049437;28;20440;-72
2023/04/14 07:41:12;;;;;;;12.57;7.00;;;;;;;16.43;53.66;91905.91;5048543;28;20547;-72
2023/04/14 07:43:39;;;;;;;8.48;3.58;;;;;;;16.67;52.89;91913.63;5049228;28;20045;-72
2023/04/14 07:46:07;;;;;;;8.35;2.90;;;;;;;16.89;52.87;91927.13;5048729;28;20049;-72
2023/04/14 07:48:35;;;;;;;6.03;3.05;;;;;;;17.13;52.69;91921.09;5048985;28;20048;-72
2023/04/14 07:51:03;;;;;;;8.00;3.92;;;;;;;17.17;52.10;91890.97;5048957;28;20048;-72
2023/04/14 07:53:30;;;;;;;6.82;3.15;;;;;;;17.08;52.04;91890.84;5048852;28;20455;-72
2023/04/14 07:55:58;;;;;;;7.47;2.72;;;;;;;17.08;52.26;91909.00;5048633;28;20044;-72
2023/04/14 07:58:25;;;;;;;10.82;2.97;;;;;;;16.99;52.89;91869.91;5048980;28;20087;-72
2023/04/14 08:00:52;;;;;;;6.47;3.30;;;;;;;17.12;53.65;91871.03;5048694;28;20037;-72
2023/04/14 08:03:37;;;;;;;9.85;3.83;;;;;;;17.28;53.26;91883.78;5048687;28;20052;-72
2023/04/14 08:06:05;;;;;;;9.70;4.50;;;;;;;17.40;51.71;91888.53;5048381;28;20094;-72
2023/04/14 08:08:32;;;;;;;12.27;3.38;;;;;;;17.43;49.73;91893.13;5048623;28;20103;-72
2023/04/14 08:11:00;;;;;;;10.43;3.40;;;;;;;17.52;48.76;91896.63;5047910;28;20045;-72
2023/04/14 08:13:27;;;;;;;13.15;2.72;;;;;;;17.54;47.84;91898.94;5048400;28;20122;-72
2023/04/14 08:15:54;;;;;;;11.35;2.78;;;;;;;17.45;47.33;91904.03;5048297;28;20095;-72
2023/04/14 08:18:21;;;;;;;15.82;3.22;;;;;;;17.36;47.51;91898.72;5048409;28;20139;-72
2023/04/14 08:20:48;;;;;;;12.57;3.42;;;;;;;17.40;46.51;91904.84;5048614;28;20079;-72
2023/04/14 08:23:15;;;;;;;9.82;2.33;;;;;;;17.38;46.80;91883.63;5048251;28;20049;-72
2023/04/14 08:25:42;;;;;;;10.20;3.88;;;;;;;17.46;46.43;91888.16;5048599;28;20048;-72
2023/04/14 08:28:11;;;;;;;11.68;6.15;;;;;;;17.59;47.01;91902.22;5046072;28;20130;-72
2023/04/14 08:30:38;;;;;;;8.45;3.45;;;;;;;17.71;45.85;91906.97;5048062;28;20056;-72
2023/04/14 08:33:04;;;;;;;16.38;3.35;;;;;;;17.84;45.72;91909.88;5048326;28;20091;-72
2023/04/14 08:35:31;;;;;;;9.68;3.00;;;;;;;18.03;45.25;91913.16;5048050;28;20138;-72
2023/04/14 08:37:59;;;;;;;11.00;2.78;;;;;;;18.20;45.30;91930.06;5047951;28;20055;-72
2023/04/14 08:40:33;;;;;;;12.55;4.47;;;;;;;18.52;45.71;91927.63;5047748;28;20107;-72
2023/04/14 08:43:00;;;;;;;11.90;4.55;;;;;;;18.65;45.09;91929.44;5047884;28;20045;-72
2023/04/14 08:45:30;;;;;;;13.38;4.78;;;;;;;18.91;44.72;91931.53;5048219;28;20556;-72
2023/04/14 08:47:58;;;;;;;18.42;7.22;;;;;;;19.30;44.89;91941.66;5047574;28;20048;-72
2023/04/14 08:50:26;;;;;;;10.10;3.08;;;;;;;19.33;42.45;91935.84;5039872;28;20052;-72
2023/04/14 08:52:56;;;;;;;13.38;3.30;;;;;;;19.43;42.33;91946.03;5047370;28;20456;-72
2023/04/14 08:55:24;;;;;;;12.32;4.13;;;;;;;19.20;43.07;91958.25;5047899;28;20049;-72
2023/04/14 08:57:51;;;;;;;14.35;3.85;;;;;;;18.89;42.73;91971.91;5033995;28;20498;-72
2023/04/14 09:00:19;;;;;;;15.68;3.47;;;;;;;18.63;43.71;91964.59;5047742;28;20654;-72
2023/04/14 09:02:47;;;;;;;12.75;3.63;;;;;;;18.48;43.90;91983.88;5047272;28;20563;-72
2023/04/14 09:05:15;;;;;;;27.92;9.00;;;;;;;18.27;44.71;91981.63;5047425;28;20497;-72
2023/04/14 09:07:42;;;;;;;19.58;4.60;;;;;;;18.05;45.69;91980.41;5046756;28;20055;-72
2023/04/14 09:10:11;;;;;;;17.42;4.90;;;;;;;17.92;46.32;91988.97;5047011;28;20139;-72
2023/04/14 09:12:39;;;;;;;29.15;9.93;;;;;;;17.63;46.82;91998.50;5047350;28;20412;-72
2023/04/14 09:15:07;;;;;;;41.50;13.15;;;;;;;17.57;46.90;92004.81;5047668;28;20045;-72
2023/04/14 09:17:35;;;;;;;25.70;8.35;;;;;;;17.54;47.18;92006.16;5047151;28;20049;-72
2023/04/14 09:20:03;;;;;;;42.53;12.00;;;;;;;17.28;47.92;92016.13;5046827;28;20493;-72
2023/04/14 09:22:31;;;;;;;59.38;15.48;;;;;;;17.00;47.13;92034.09;5047146;28;20041;-73
2023/04/14 09:24:58;;;;;;;32.33;9.20;;;;;;;16.68;47.68;92026.66;5047311;28;20123;-72
2023/04/14 09:27:26;;;;;;;66.30;16.40;;;;;;;16.43;47.70;92018.13;5047413;28;20782;-72
2023/04/14 09:29:56;;;;;;;38.95;11.05;;;;;;;16.51;48.36;92045.25;5047210;28;20140;-72
2023/04/14 09:32:23;;;;;;;82.20;21.13;;;;;;;16.45;49.12;92043.78;5047564;28;20049;-72
2023/04/14 09:34:52;;;;;;;105.50;27.88;;;;;;;16.34;49.86;92047.50;5042038;28;20049;-72
2023/04/14 09:37:21;;;;;;;41.72;12.18;;;;;;;16.28;49.83;92041.59;5038894;28;20049;-72
2023/04/14 09:39:49;;;;;;;52.65;14.10;;;;;;;16.23;49.88;92057.97;5047007;28;20052;-72
2023/04/14 09:42:17;;;;;;;74.38;19.90;;;;;;;16.07;49.92;92031.44;5047106;28;20132;-72
2023/04/14 09:44:54;;;;;;;52.03;16.05;;;;;;;16.23;49.88;92076.09;5047158;28;20067;-72
2023/04/14 09:47:21;;;;;;;22.40;6.03;;;;;;;16.05;49.73;92053.47;5047157;28;20051;-72
2023/04/14 09:49:56;;;;;;;44.65;15.00;;;;;;;16.07;48.78;92062.50;5046643;28;20118;-72
2023/04/14 09:52:36;;;;;;;27.85;9.82;;;;;;;15.97;48.78;92068.53;5046666;28;20049;-72
2023/04/14 09:55:06;;;;;;;26.98;9.70;;;;;;;15.79;49.08;92069.16;5047070;28;20047;-72
2023/04/14 09:57:33;;;;;;;33.65;10.82;;;;;;;15.80;49.24;92057.75;5046703;28;20864;-73
2023/04/14 10:00:00;;;;;;;31.77;11.50;;;;;;;15.74;49.21;92081.09;5045852;28;20087;-72
2023/04/14 10:02:27;;;;;;;41.97;15.30;;;;;;;15.73;49.39;92065.81;5044997;28;20049;-72
2023/04/14 10:05:03;;;;;;;42.67;14.52;;;;;;;15.57;49.66;92050.41;5047030;28;20052;-73
2023/04/14 10:07:32;;;;;;;24.23;8.63;;;;;;;15.63;50.13;92079.59;5046308;28;20077;-73
2023/04/14 10:10:06;;;;;;;32.50;11.85;;;;;;;15.60;50.38;92064.63;5046552;28;20041;-72
2023/04/14 10:12:33;;;;;;;42.63;16.23;;;;;;;15.75;50.35;92098.16;5046417;28;20130;-72
2023/04/14 10:15:00;;;;;;;16.77;5.97;;;;;;;15.70;51.23;92116.31;5046501;28;20048;-72
2023/04/14 10:17:26;;;;;;;30.85;9.43;;;;;;;15.47;53.86;92105.56;5046549;28;20057;-72
2023/04/14 10:19:53;;;;;;;24.13;9.05;;;;;;;15.32;55.83;92118.59;5046052;28;20451;-72
2023/04/14 10:22:21;;;;;;;11.85;4.63;;;;;;;15.10;59.20;92143.00;5046699;28;20045;-72
2023/04/14 10:24:49;;;;;;;10.85;3.10;;;;;;;14.82;63.41;92155.47;5046645;28;20084;-72
2023/04/14 10:27:16;;;;;;;15.43;3.70;;;;;;;14.49;73.37;92188.56;5046475;28;20091;-72
2023/04/14 10:29:43;;;;;;;10.57;3.13;;;;;;;14.33;77.15;92195.53;5046520;28;20044;-72
2023/04/14 10:32:15;;;;;;;14.50;5.68;;;;;;;14.07;81.67;92196.28;5046999;28;20053;-72
2023/04/14 10:34:56;;;;;;;17.40;5.03;;;;;;;13.81;84.13;92208.34;5045581;28;20045;-72
2023/04/14 10:37:23;;;;;;;16.05;6.57;;;;;;;13.57;85.03;92227.63;5030318;28;20505;-72
2023/04/14 10:39:56;;;;;;;8.13;3.92;;;;;;;13.38;85.58;92214.34;5036851;28;20120;-72
2023/04/14 10:42:23;;;;;;;8.77;3.80;;;;;;;13.33;89.58;92229.81;5050542;28;20102;-72
2023/04/14 10:45:03;;;;;;;18.33;7.82;;;;;;;13.30;92.99;92220.78;5050115;28;20052;-72
2023/04/14 10:47:30;;;;;;;6.43;1.75;;;;;;;13.20;89.20;92228.47;5049619;28;20037;-72
2023/04/14 10:49:57;;;;;;;10.70;3.28;;;;;;;13.08;85.01;92229.44;5049773;28;20045;-72
2023/04/14 10:52:32;;;;;;;6.88;1.60;;;;;;;12.69;82.17;92242.59;5049892;28;20489;-72
2023/04/14 10:55:07;;;;;;;10.55;2.08;;;;;;;12.64;83.43;92253.59;5050063;28;20094;-72
2023/04/14 10:57:37;;;;;;;13.00;2.65;;;;;;;12.54;81.23;92264.59;5049821;28;20127;-72
2023/04/14 11:00:22;;;;;;;6.13;1.13;;;;;;;12.45;79.89;92255.00;5049880;28;20052;-72
2023/04/14 11:03:02;;;;;;;9.10;2.80;;;;;;;12.27;80.03;92265.41;5036649;28;20053;-72
2023/04/14 11:05:29;;;;;;;10.45;2.40;;;;;;;12.21;79.63;92265.59;5049655;28;20057;-72
2023/04/14 11:07:57;;;;;;;30.52;11.07;;;;;;;12.05;83.81;92274.97;5050003;28;20425;-73
2023/04/14 11:10:32;;;;;;;7.80;1.98;;;;;;;11.73;83.93;92277.19;5049736;28;20053;-71
2023/04/14 11:13:03;;;;;;;14.52;5.05;;;;;;;11.48;85.90;92283.53;5050053;28;20049;-71
2023/04/14 11:15:50;;;;;;;9.40;2.45;;;;;;;11.31;89.06;92280.25;5049803;28;20149;-71
2023/04/14 11:18:20;;;;;;;11.50;5.10;;;;;;;11.27;93.22;92271.44;5037424;28;20063;-72
2023/04/14 11:20:47;;;;;;;4.32;1.30;;;;;;;11.04;92.54;92252.63;5049316;28;20505;-72
2023/04/14 11:23:15;;;;;;;5.88;2.72;;;;;;;11.12;97.53;92257.38;5049439;28;20448;-72
2023/04/14 11:25:44;;;;;;;23.77;8.90;;;;;;;11.32;100.00;92289.50;5049822;28;20386;-71
2023/04/14 11:28:11;;;;;;;5.78;2.33;;;;;;;11.28;96.83;92290.97;5049587;28;20041;-71
2023/04/14 11:30:40;;;;;;;15.70;7.00;;;;;;;11.26;100.00;92308.44;5049572;28;20057;-71
2023/04/14 11:33:07;;;;;;;10.52;4.13;;;;;;;11.05;96.93;92332.06;5049149;28;20864;-71
2023/04/14 11:35:34;;;;;;;7.32;3.25;;;;;;;10.83;95.17;92345.59;5049922;28;20106;-71
2023/04/14 11:38:00;;;;;;;7.13;2.88;;;;;;;10.72;98.24;92356.72;5049215;28;20037;-71